Pagrindinis puslapis
METAR-TAF:

METAR-TAF

Oro uostai :

Sharurah, Saudo Arabija

platuma: 17-28N, ilguma: 047-07E, Aukštis: 720 m

Dabartinis oras

Ataskaita buvo paskelbta 35 minutes, ne 01:00 UTC
Vėjas 8 kt iš Šiaurės Rytų
Temperatūra 19°C
Drėgmė 49%
Slėgis 1017 hPa
Matomumas: 3000 m
dulkės

METAR: OESH 260100Z 04008KT 3000 DU NSC 19/08 Q1017 NOSIG

Laikas: 04:35 (01:35 UTC)

Prognozė

Ataskaita buvo paskelbta 2 valandos ir 35 minutes, ne 23:00 UTC
Prognozė galioja nuo 26 metu 00 UTC su 27 metu 06 UTC
Vėjas 10 kt iš Šiaurės
Matomumas: 4000 m
dulkės
Laikinai
nuo 26 metu 00 UTC su 26 metu 12 UTC
Matomumas: 1000 m
dulkės
Tapsmas
nuo 26 metu 06 UTC su 26 metu 08 UTC
Vėjas 16 kt iš Šiaurės Rytų

TAF: OESH 252300Z 2600/2706 36010KT 4000 DU NSC TEMPO 2600/2612 1000 DU BECMG 2606/2608 04016KT

Orai ataskaitas ir orų prognozės (METAR, TAF).

turimą stotys yra geltonos ir raudonos taškus žemėlapyje.

Perkelti pele per norėdami pamatyti stoties vardą.

Tada spustelėkite, norėdami matyti oro stebėjimo ir prognozės.

Norėdami pakeisti žemėlapį: spustelėkite ant žalios mygtukų su juodo kryžiaus žemyn,; žalią mygtuką su brūkšneliu, jei norite nutolinti; arba žalių rodyklių gretimoms žemėlapius.


METAR-TAF: